sensor_id;sensor_type;location;lat;lon;timestamp;temperature;humidity
18218;DHT22;9234;49.344;11.120;2023-06-10T00:00:24;14.30;99.90
18218;DHT22;9234;49.344;11.120;2023-06-10T00:02:52;14.30;99.90
18218;DHT22;9234;49.344;11.120;2023-06-10T00:05:21;14.30;99.90
18218;DHT22;9234;49.344;11.120;2023-06-10T00:07:50;14.20;99.90
18218;DHT22;9234;49.344;11.120;2023-06-10T00:10:22;14.20;99.90
18218;DHT22;9234;49.344;11.120;2023-06-10T00:12:51;14.20;99.90
18218;DHT22;9234;49.344;11.120;2023-06-10T00:15:19;14.20;99.90
18218;DHT22;9234;49.344;11.120;2023-06-10T00:17:48;14.10;99.90
18218;DHT22;9234;49.344;11.120;2023-06-10T00:20:16;14.10;99.90
18218;DHT22;9234;49.344;11.120;2023-06-10T00:22:44;14.10;99.90
18218;DHT22;9234;49.344;11.120;2023-06-10T00:25:14;14.00;99.90
18218;DHT22;9234;49.344;11.120;2023-06-10T00:27:44;14.00;99.90
18218;DHT22;9234;49.344;11.120;2023-06-10T00:30:13;14.00;99.90
18218;DHT22;9234;49.344;11.120;2023-06-10T00:32:42;13.90;99.90
18218;DHT22;9234;49.344;11.120;2023-06-10T00:35:10;13.90;99.90
18218;DHT22;9234;49.344;11.120;2023-06-10T00:37:39;13.90;99.90
18218;DHT22;9234;49.344;11.120;2023-06-10T00:40:09;13.90;99.90
18218;DHT22;9234;49.344;11.120;2023-06-10T00:42:39;13.80;99.90
18218;DHT22;9234;49.344;11.120;2023-06-10T00:45:08;13.80;99.90
18218;DHT22;9234;49.344;11.120;2023-06-10T00:47:37;13.80;99.90
18218;DHT22;9234;49.344;11.120;2023-06-10T00:50:07;13.70;99.90
18218;DHT22;9234;49.344;11.120;2023-06-10T00:52:36;13.70;99.90
18218;DHT22;9234;49.344;11.120;2023-06-10T00:55:05;13.70;99.90
18218;DHT22;9234;49.344;11.120;2023-06-10T00:57:36;13.70;99.90
18218;DHT22;9234;49.344;11.120;2023-06-10T01:00:08;13.60;99.90
18218;DHT22;9234;49.344;11.120;2023-06-10T01:02:37;13.60;99.90
18218;DHT22;9234;49.344;11.120;2023-06-10T01:05:06;13.60;99.90
18218;DHT22;9234;49.344;11.120;2023-06-10T01:07:40;13.50;99.90
18218;DHT22;9234;49.344;11.120;2023-06-10T01:10:19;13.50;99.90
18218;DHT22;9234;49.344;11.120;2023-06-10T01:12:58;13.50;99.90
18218;DHT22;9234;49.344;11.120;2023-06-10T01:15:31;13.40;99.90
18218;DHT22;9234;49.344;11.120;2023-06-10T01:18:01;13.40;99.90
18218;DHT22;9234;49.344;11.120;2023-06-10T01:20:32;13.40;99.90
18218;DHT22;9234;49.344;11.120;2023-06-10T01:23:02;13.30;99.90
18218;DHT22;9234;49.344;11.120;2023-06-10T01:25:31;13.30;99.90
18218;DHT22;9234;49.344;11.120;2023-06-10T01:28:07;13.30;99.90
18218;DHT22;9234;49.344;11.120;2023-06-10T01:30:45;13.30;99.90
18218;DHT22;9234;49.344;11.120;2023-06-10T01:33:21;13.30;99.90
18218;DHT22;9234;49.344;11.120;2023-06-10T01:35:56;13.20;99.90
18218;DHT22;9234;49.344;11.120;2023-06-10T01:38:32;13.20;99.90
18218;DHT22;9234;49.344;11.120;2023-06-10T01:41:05;13.20;99.90
18218;DHT22;9234;49.344;11.120;2023-06-10T01:43:34;13.20;99.90
18218;DHT22;9234;49.344;11.120;2023-06-10T01:46:06;13.10;99.90
18218;DHT22;9234;49.344;11.120;2023-06-10T01:48:34;13.10;99.90
18218;DHT22;9234;49.344;11.120;2023-06-10T01:51:03;13.10;99.90
18218;DHT22;9234;49.344;11.120;2023-06-10T01:53:33;13.10;99.90
18218;DHT22;9234;49.344;11.120;2023-06-10T01:56:01;13.10;99.90
18218;DHT22;9234;49.344;11.120;2023-06-10T01:58:30;13.10;99.90
18218;DHT22;9234;49.344;11.120;2023-06-10T02:00:58;13.00;99.90
18218;DHT22;9234;49.344;11.120;2023-06-10T02:03:26;13.00;99.90
18218;DHT22;9234;49.344;11.120;2023-06-10T02:05:55;13.00;99.90
18218;DHT22;9234;49.344;11.120;2023-06-10T02:08:24;13.00;99.90
18218;DHT22;9234;49.344;11.120;2023-06-10T02:10:53;13.00;99.90
18218;DHT22;9234;49.344;11.120;2023-06-10T02:13:22;13.00;99.90
18218;DHT22;9234;49.344;11.120;2023-06-10T02:15:53;13.00;99.90
18218;DHT22;9234;49.344;11.120;2023-06-10T02:18:21;12.90;99.90
18218;DHT22;9234;49.344;11.120;2023-06-10T02:20:50;12.90;99.90
18218;DHT22;9234;49.344;11.120;2023-06-10T02:23:18;12.90;99.90
18218;DHT22;9234;49.344;11.120;2023-06-10T02:25:46;12.90;99.90
18218;DHT22;9234;49.344;11.120;2023-06-10T02:28:16;12.90;99.90
18218;DHT22;9234;49.344;11.120;2023-06-10T02:30:45;12.90;99.90
18218;DHT22;9234;49.344;11.120;2023-06-10T02:33:14;12.80;99.90
18218;DHT22;9234;49.344;11.120;2023-06-10T02:35:44;12.80;99.90
18218;DHT22;9234;49.344;11.120;2023-06-10T02:38:12;12.80;99.90
18218;DHT22;9234;49.344;11.120;2023-06-10T02:40:40;12.80;99.90
18218;DHT22;9234;49.344;11.120;2023-06-10T02:43:10;12.70;99.90
18218;DHT22;9234;49.344;11.120;2023-06-10T02:45:39;12.70;99.90
18218;DHT22;9234;49.344;11.120;2023-06-10T02:48:08;12.70;99.90
18218;DHT22;9234;49.344;11.120;2023-06-10T02:50:37;12.70;99.90
18218;DHT22;9234;49.344;11.120;2023-06-10T02:53:17;12.70;99.90
18218;DHT22;9234;49.344;11.120;2023-06-10T02:55:51;12.60;99.90
18218;DHT22;9234;49.344;11.120;2023-06-10T02:58:20;12.60;99.90
18218;DHT22;9234;49.344;11.120;2023-06-10T03:00:50;12.60;99.90
18218;DHT22;9234;49.344;11.120;2023-06-10T03:03:19;12.50;99.90
18218;DHT22;9234;49.344;11.120;2023-06-10T03:05:59;12.50;99.90
18218;DHT22;9234;49.344;11.120;2023-06-10T03:08:28;12.50;99.90
18218;DHT22;9234;49.344;11.120;2023-06-10T03:10:59;12.50;99.90
18218;DHT22;9234;49.344;11.120;2023-06-10T03:13:29;12.50;99.90
18218;DHT22;9234;49.344;11.120;2023-06-10T03:15:58;12.50;99.90
18218;DHT22;9234;49.344;11.120;2023-06-10T03:18:28;12.40;99.90
18218;DHT22;9234;49.344;11.120;2023-06-10T03:20:56;12.40;99.90
18218;DHT22;9234;49.344;11.120;2023-06-10T03:23:26;12.40;99.90
18218;DHT22;9234;49.344;11.120;2023-06-10T03:25:55;12.40;99.90
18218;DHT22;9234;49.344;11.120;2023-06-10T03:28:24;12.40;99.90
18218;DHT22;9234;49.344;11.120;2023-06-10T03:30:52;12.40;99.90
18218;DHT22;9234;49.344;11.120;2023-06-10T03:33:25;12.40;99.90
18218;DHT22;9234;49.344;11.120;2023-06-10T03:35:53;12.40;99.90
18218;DHT22;9234;49.344;11.120;2023-06-10T03:38:23;12.40;99.90
18218;DHT22;9234;49.344;11.120;2023-06-10T03:40:52;12.40;99.90
18218;DHT22;9234;49.344;11.120;2023-06-10T03:43:21;12.40;99.90
18218;DHT22;9234;49.344;11.120;2023-06-10T03:45:51;12.40;99.90
18218;DHT22;9234;49.344;11.120;2023-06-10T03:48:19;12.40;99.90
18218;DHT22;9234;49.344;11.120;2023-06-10T03:50:52;12.40;99.90
18218;DHT22;9234;49.344;11.120;2023-06-10T03:53:21;12.40;99.90
18218;DHT22;9234;49.344;11.120;2023-06-10T03:55:50;12.50;99.90
18218;DHT22;9234;49.344;11.120;2023-06-10T03:58:22;12.40;99.90
18218;DHT22;9234;49.344;11.120;2023-06-10T04:00:51;12.50;99.90
18218;DHT22;9234;49.344;11.120;2023-06-10T04:03:28;12.50;99.90
18218;DHT22;9234;49.344;11.120;2023-06-10T04:05:58;12.50;99.90
18218;DHT22;9234;49.344;11.120;2023-06-10T04:08:27;12.50;99.90
18218;DHT22;9234;49.344;11.120;2023-06-10T04:10:56;12.50;99.90
18218;DHT22;9234;49.344;11.120;2023-06-10T04:13:26;12.60;99.90
18218;DHT22;9234;49.344;11.120;2023-06-10T04:15:57;12.60;99.90
18218;DHT22;9234;49.344;11.120;2023-06-10T04:18:26;12.60;99.90
18218;DHT22;9234;49.344;11.120;2023-06-10T04:20:59;12.70;99.90
18218;DHT22;9234;49.344;11.120;2023-06-10T04:23:29;12.70;99.90
18218;DHT22;9234;49.344;11.120;2023-06-10T04:25:57;12.80;99.90
18218;DHT22;9234;49.344;11.120;2023-06-10T04:28:26;12.80;99.90
18218;DHT22;9234;49.344;11.120;2023-06-10T04:30:55;12.90;99.90
18218;DHT22;9234;49.344;11.120;2023-06-10T04:33:24;12.90;99.90
18218;DHT22;9234;49.344;11.120;2023-06-10T04:35:53;13.00;99.90
18218;DHT22;9234;49.344;11.120;2023-06-10T04:38:25;13.00;99.90
18218;DHT22;9234;49.344;11.120;2023-06-10T04:40:53;13.10;99.90
18218;DHT22;9234;49.344;11.120;2023-06-10T04:43:22;13.20;99.90
18218;DHT22;9234;49.344;11.120;2023-06-10T04:45:50;13.20;99.90
18218;DHT22;9234;49.344;11.120;2023-06-10T04:48:19;13.30;99.90
18218;DHT22;9234;49.344;11.120;2023-06-10T04:50:47;13.30;99.90
18218;DHT22;9234;49.344;11.120;2023-06-10T04:53:15;13.40;99.90
18218;DHT22;9234;49.344;11.120;2023-06-10T04:55:47;13.40;99.90
18218;DHT22;9234;49.344;11.120;2023-06-10T04:58:15;13.50;99.90
18218;DHT22;9234;49.344;11.120;2023-06-10T05:00:44;13.60;99.90
18218;DHT22;9234;49.344;11.120;2023-06-10T05:03:12;13.70;99.90
18218;DHT22;9234;49.344;11.120;2023-06-10T05:05:40;13.70;99.90
18218;DHT22;9234;49.344;11.120;2023-06-10T05:08:09;13.80;99.90
18218;DHT22;9234;49.344;11.120;2023-06-10T05:10:37;13.90;99.90
18218;DHT22;9234;49.344;11.120;2023-06-10T05:13:07;14.00;99.90
18218;DHT22;9234;49.344;11.120;2023-06-10T05:15:35;14.10;99.90
18218;DHT22;9234;49.344;11.120;2023-06-10T05:18:04;14.20;99.90
18218;DHT22;9234;49.344;11.120;2023-06-10T05:20:32;14.30;99.90
18218;DHT22;9234;49.344;11.120;2023-06-10T05:23:01;14.40;99.90
18218;DHT22;9234;49.344;11.120;2023-06-10T05:25:30;14.50;99.90
18218;DHT22;9234;49.344;11.120;2023-06-10T05:27:59;14.60;99.90
18218;DHT22;9234;49.344;11.120;2023-06-10T05:30:29;14.70;99.90
18218;DHT22;9234;49.344;11.120;2023-06-10T05:32:57;14.80;99.90
18218;DHT22;9234;49.344;11.120;2023-06-10T05:35:25;14.90;99.90
18218;DHT22;9234;49.344;11.120;2023-06-10T05:37:54;15.00;99.90
18218;DHT22;9234;49.344;11.120;2023-06-10T05:40:22;15.10;99.90
18218;DHT22;9234;49.344;11.120;2023-06-10T05:42:50;15.30;99.90
18218;DHT22;9234;49.344;11.120;2023-06-10T05:45:18;15.30;99.90
18218;DHT22;9234;49.344;11.120;2023-06-10T05:47:48;15.40;99.90
18218;DHT22;9234;49.344;11.120;2023-06-10T05:50:17;15.50;99.90
18218;DHT22;9234;49.344;11.120;2023-06-10T05:52:46;15.70;99.90
18218;DHT22;9234;49.344;11.120;2023-06-10T05:55:14;15.70;99.90
18218;DHT22;9234;49.344;11.120;2023-06-10T05:57:42;15.90;99.90
18218;DHT22;9234;49.344;11.120;2023-06-10T06:00:11;16.00;99.90
18218;DHT22;9234;49.344;11.120;2023-06-10T06:02:41;16.10;99.90
18218;DHT22;9234;49.344;11.120;2023-06-10T06:05:10;16.20;99.90
18218;DHT22;9234;49.344;11.120;2023-06-10T06:07:40;16.30;99.90
18218;DHT22;9234;49.344;11.120;2023-06-10T06:10:08;16.40;99.90
18218;DHT22;9234;49.344;11.120;2023-06-10T06:12:37;16.50;99.90
18218;DHT22;9234;49.344;11.120;2023-06-10T06:15:06;16.60;99.90
18218;DHT22;9234;49.344;11.120;2023-06-10T06:17:36;16.80;99.90
18218;DHT22;9234;49.344;11.120;2023-06-10T06:20:06;16.90;99.90
18218;DHT22;9234;49.344;11.120;2023-06-10T06:22:36;17.10;99.90
18218;DHT22;9234;49.344;11.120;2023-06-10T06:25:05;17.20;99.90
18218;DHT22;9234;49.344;11.120;2023-06-10T06:27:34;17.30;99.90
18218;DHT22;9234;49.344;11.120;2023-06-10T06:30:03;17.50;99.90
18218;DHT22;9234;49.344;11.120;2023-06-10T06:32:33;17.60;99.90
18218;DHT22;9234;49.344;11.120;2023-06-10T06:35:01;17.70;99.90
18218;DHT22;9234;49.344;11.120;2023-06-10T06:37:31;17.90;99.90
18218;DHT22;9234;49.344;11.120;2023-06-10T06:40:15;18.00;99.90
18218;DHT22;9234;49.344;11.120;2023-06-10T06:42:44;18.20;99.90
18218;DHT22;9234;49.344;11.120;2023-06-10T06:45:28;18.40;99.90
18218;DHT22;9234;49.344;11.120;2023-06-10T06:47:57;18.50;99.90
18218;DHT22;9234;49.344;11.120;2023-06-10T06:50:25;18.70;99.90
18218;DHT22;9234;49.344;11.120;2023-06-10T06:52:53;18.90;99.90
18218;DHT22;9234;49.344;11.120;2023-06-10T06:55:23;19.00;99.90
18218;DHT22;9234;49.344;11.120;2023-06-10T06:57:51;19.20;99.90
18218;DHT22;9234;49.344;11.120;2023-06-10T07:00:20;19.30;99.90
18218;DHT22;9234;49.344;11.120;2023-06-10T07:02:48;19.40;99.90
18218;DHT22;9234;49.344;11.120;2023-06-10T07:05:17;19.60;99.90
18218;DHT22;9234;49.344;11.120;2023-06-10T07:07:45;19.70;99.90
18218;DHT22;9234;49.344;11.120;2023-06-10T07:10:13;19.80;99.90
18218;DHT22;9234;49.344;11.120;2023-06-10T07:12:43;19.90;99.90
18218;DHT22;9234;49.344;11.120;2023-06-10T07:15:11;20.00;99.90
18218;DHT22;9234;49.344;11.120;2023-06-10T07:17:40;20.10;99.90
18218;DHT22;9234;49.344;11.120;2023-06-10T07:20:10;20.30;99.90
18218;DHT22;9234;49.344;11.120;2023-06-10T07:22:39;20.40;99.90
18218;DHT22;9234;49.344;11.120;2023-06-10T07:25:08;20.50;99.90
18218;DHT22;9234;49.344;11.120;2023-06-10T07:27:37;20.60;99.90
18218;DHT22;9234;49.344;11.120;2023-06-10T07:30:08;20.70;99.90
18218;DHT22;9234;49.344;11.120;2023-06-10T07:32:37;20.80;99.90
18218;DHT22;9234;49.344;11.120;2023-06-10T07:35:09;20.90;99.90
18218;DHT22;9234;49.344;11.120;2023-06-10T07:37:38;21.00;99.90
18218;DHT22;9234;49.344;11.120;2023-06-10T07:40:07;21.10;99.90
18218;DHT22;9234;49.344;11.120;2023-06-10T07:42:36;21.20;99.90
18218;DHT22;9234;49.344;11.120;2023-06-10T07:45:07;21.40;99.90
18218;DHT22;9234;49.344;11.120;2023-06-10T07:47:36;21.50;99.90
18218;DHT22;9234;49.344;11.120;2023-06-10T07:50:05;21.60;99.90
18218;DHT22;9234;49.344;11.120;2023-06-10T07:52:33;21.70;99.60
18218;DHT22;9234;49.344;11.120;2023-06-10T07:55:02;21.90;99.30
18218;DHT22;9234;49.344;11.120;2023-06-10T07:57:30;22.00;99.00
18218;DHT22;9234;49.344;11.120;2023-06-10T08:00:02;22.20;98.70
18218;DHT22;9234;49.344;11.120;2023-06-10T08:02:39;22.30;97.50
18218;DHT22;9234;49.344;11.120;2023-06-10T08:05:08;22.40;97.90
18218;DHT22;9234;49.344;11.120;2023-06-10T08:07:37;22.60;96.70
18218;DHT22;9234;49.344;11.120;2023-06-10T08:10:06;22.70;95.70
18218;DHT22;9234;49.344;11.120;2023-06-10T08:12:35;22.70;96.00
18218;DHT22;9234;49.344;11.120;2023-06-10T08:15:05;22.80;96.10
18218;DHT22;9234;49.344;11.120;2023-06-10T08:17:34;23.00;95.40
18218;DHT22;9234;49.344;11.120;2023-06-10T08:20:05;23.10;95.30
18218;DHT22;9234;49.344;11.120;2023-06-10T08:22:34;23.20;94.40
18218;DHT22;9234;49.344;11.120;2023-06-10T08:25:03;23.40;94.10
18218;DHT22;9234;49.344;11.120;2023-06-10T08:27:32;23.50;93.50
18218;DHT22;9234;49.344;11.120;2023-06-10T08:30:00;23.60;93.70
18218;DHT22;9234;49.344;11.120;2023-06-10T08:32:30;23.70;93.00
18218;DHT22;9234;49.344;11.120;2023-06-10T08:34:58;23.90;92.80
18218;DHT22;9234;49.344;11.120;2023-06-10T08:37:28;24.00;92.10
18218;DHT22;9234;49.344;11.120;2023-06-10T08:39:57;24.10;92.00
18218;DHT22;9234;49.344;11.120;2023-06-10T08:42:31;24.30;91.50
18218;DHT22;9234;49.344;11.120;2023-06-10T08:45:02;24.40;91.10
18218;DHT22;9234;49.344;11.120;2023-06-10T08:47:34;24.60;91.50
18218;DHT22;9234;49.344;11.120;2023-06-10T08:50:05;24.80;90.80
18218;DHT22;9234;49.344;11.120;2023-06-10T08:52:43;24.80;88.90
18218;DHT22;9234;49.344;11.120;2023-06-10T08:55:15;24.80;88.90
18218;DHT22;9234;49.344;11.120;2023-06-10T08:57:46;24.80;89.00
18218;DHT22;9234;49.344;11.120;2023-06-10T09:00:16;25.00;86.80
18218;DHT22;9234;49.344;11.120;2023-06-10T09:02:45;25.10;87.80
18218;DHT22;9234;49.344;11.120;2023-06-10T09:05:15;25.30;87.60
18218;DHT22;9234;49.344;11.120;2023-06-10T09:07:46;25.40;86.50
18218;DHT22;9234;49.344;11.120;2023-06-10T09:10:16;25.60;87.40
18218;DHT22;9234;49.344;11.120;2023-06-10T09:12:44;26.00;86.10
18218;DHT22;9234;49.344;11.120;2023-06-10T09:15:13;26.20;85.50
18218;DHT22;9234;49.344;11.120;2023-06-10T09:17:43;26.50;83.60
18218;DHT22;9234;49.344;11.120;2023-06-10T09:20:12;26.60;80.20
18218;DHT22;9234;49.344;11.120;2023-06-10T09:22:42;26.50;82.10
18218;DHT22;9234;49.344;11.120;2023-06-10T09:25:12;26.30;83.00
18218;DHT22;9234;49.344;11.120;2023-06-10T09:27:44;26.20;83.40
18218;DHT22;9234;49.344;11.120;2023-06-10T09:30:24;26.00;82.00
18218;DHT22;9234;49.344;11.120;2023-06-10T09:32:54;26.00;82.50
18218;DHT22;9234;49.344;11.120;2023-06-10T09:35:24;26.30;82.70
18218;DHT22;9234;49.344;11.120;2023-06-10T09:37:55;26.50;81.40
18218;DHT22;9234;49.344;11.120;2023-06-10T09:40:25;26.60;81.90
18218;DHT22;9234;49.344;11.120;2023-06-10T09:42:56;26.80;80.70
18218;DHT22;9234;49.344;11.120;2023-06-10T09:45:30;26.80;80.00
18218;DHT22;9234;49.344;11.120;2023-06-10T09:47:59;27.00;78.00
18218;DHT22;9234;49.344;11.120;2023-06-10T09:50:33;27.00;76.80
18218;DHT22;9234;49.344;11.120;2023-06-10T09:53:03;26.90;78.70
18218;DHT22;9234;49.344;11.120;2023-06-10T09:55:37;26.80;79.40
18218;DHT22;9234;49.344;11.120;2023-06-10T09:58:06;26.90;80.40
18218;DHT22;9234;49.344;11.120;2023-06-10T10:00:35;27.00;79.30
18218;DHT22;9234;49.344;11.120;2023-06-10T10:03:04;26.90;78.50
18218;DHT22;9234;49.344;11.120;2023-06-10T10:05:33;26.90;79.30
18218;DHT22;9234;49.344;11.120;2023-06-10T10:08:02;26.90;79.40
18218;DHT22;9234;49.344;11.120;2023-06-10T10:10:31;26.80;78.90
18218;DHT22;9234;49.344;11.120;2023-06-10T10:13:01;26.70;78.30
18218;DHT22;9234;49.344;11.120;2023-06-10T10:15:32;26.80;80.50
18218;DHT22;9234;49.344;11.120;2023-06-10T10:18:07;27.00;79.70
18218;DHT22;9234;49.344;11.120;2023-06-10T10:20:46;27.10;78.10
18218;DHT22;9234;49.344;11.120;2023-06-10T10:23:24;27.30;77.60
18218;DHT22;9234;49.344;11.120;2023-06-10T10:25:57;27.40;77.40
18218;DHT22;9234;49.344;11.120;2023-06-10T10:28:40;27.40;77.10
18218;DHT22;9234;49.344;11.120;2023-06-10T10:31:16;27.40;75.70
18218;DHT22;9234;49.344;11.120;2023-06-10T10:33:54;27.40;76.60
18218;DHT22;9234;49.344;11.120;2023-06-10T10:36:26;27.40;76.20
18218;DHT22;9234;49.344;11.120;2023-06-10T10:38:56;27.40;75.90
18218;DHT22;9234;49.344;11.120;2023-06-10T10:41:26;27.40;76.30
18218;DHT22;9234;49.344;11.120;2023-06-10T10:43:57;27.30;76.10
18218;DHT22;9234;49.344;11.120;2023-06-10T10:46:26;27.10;76.80
18218;DHT22;9234;49.344;11.120;2023-06-10T10:48:56;27.00;76.20
18218;DHT22;9234;49.344;11.120;2023-06-10T10:51:25;26.90;77.70
18218;DHT22;9234;49.344;11.120;2023-06-10T10:54:11;27.00;78.00
18218;DHT22;9234;49.344;11.120;2023-06-10T10:57:10;27.00;75.50
18218;DHT22;9234;49.344;11.120;2023-06-10T10:59:57;26.90;76.90
18218;DHT22;9234;49.344;11.120;2023-06-10T11:02:40;27.00;76.20
18218;DHT22;9234;49.344;11.120;2023-06-10T11:05:13;27.00;75.60
18218;DHT22;9234;49.344;11.120;2023-06-10T11:07:53;27.00;76.20
18218;DHT22;9234;49.344;11.120;2023-06-10T11:10:29;27.00;76.70
18218;DHT22;9234;49.344;11.120;2023-06-10T11:12:59;27.00;76.70
18218;DHT22;9234;49.344;11.120;2023-06-10T11:15:30;27.00;76.70
18218;DHT22;9234;49.344;11.120;2023-06-10T11:18:12;27.20;78.40
18218;DHT22;9234;49.344;11.120;2023-06-10T11:20:56;27.60;75.30
18218;DHT22;9234;49.344;11.120;2023-06-10T11:23:40;27.80;74.20
18218;DHT22;9234;49.344;11.120;2023-06-10T11:26:15;28.10;74.10
18218;DHT22;9234;49.344;11.120;2023-06-10T11:29:08;28.60;74.00
18218;DHT22;9234;49.344;11.120;2023-06-10T11:31:48;29.10;69.50
18218;DHT22;9234;49.344;11.120;2023-06-10T11:34:22;29.50;68.90
18218;DHT22;9234;49.344;11.120;2023-06-10T11:36:54;29.60;67.10
18218;DHT22;9234;49.344;11.120;2023-06-10T11:39:22;29.50;67.30
18218;DHT22;9234;49.344;11.120;2023-06-10T11:41:53;29.30;68.30
18218;DHT22;9234;49.344;11.120;2023-06-10T11:44:27;29.20;68.00
18218;DHT22;9234;49.344;11.120;2023-06-10T11:47:00;29.50;68.40
18218;DHT22;9234;49.344;11.120;2023-06-10T11:49:28;29.90;69.00
18218;DHT22;9234;49.344;11.120;2023-06-10T11:51:57;30.10;64.90
18218;DHT22;9234;49.344;11.120;2023-06-10T11:54:25;30.20;64.40
18218;DHT22;9234;49.344;11.120;2023-06-10T11:56:58;30.10;65.00
18218;DHT22;9234;49.344;11.120;2023-06-10T11:59:27;29.90;65.10
18218;DHT22;9234;49.344;11.120;2023-06-10T12:01:56;29.60;63.50
18218;DHT22;9234;49.344;11.120;2023-06-10T12:04:26;29.50;65.00
18218;DHT22;9234;49.344;11.120;2023-06-10T12:06:54;29.50;64.20
18218;DHT22;9234;49.344;11.120;2023-06-10T12:09:24;29.40;64.60
18218;DHT22;9234;49.344;11.120;2023-06-10T12:11:56;29.30;64.80
18218;DHT22;9234;49.344;11.120;2023-06-10T12:14:53;29.10;65.10
18218;DHT22;9234;49.344;11.120;2023-06-10T12:17:35;28.80;65.00
18218;DHT22;9234;49.344;11.120;2023-06-10T12:20:08;28.50;65.50
18218;DHT22;9234;49.344;11.120;2023-06-10T12:22:51;28.40;66.70
18218;DHT22;9234;49.344;11.120;2023-06-10T12:25:25;28.70;68.10
18218;DHT22;9234;49.344;11.120;2023-06-10T12:27:55;29.30;67.50
18218;DHT22;9234;49.344;11.120;2023-06-10T12:30:25;29.80;65.60
18218;DHT22;9234;49.344;11.120;2023-06-10T12:32:55;30.30;63.90
18218;DHT22;9234;49.344;11.120;2023-06-10T12:35:27;30.80;61.50
18218;DHT22;9234;49.344;11.120;2023-06-10T12:37:57;31.20;60.00
18218;DHT22;9234;49.344;11.120;2023-06-10T12:40:28;31.60;60.70
18218;DHT22;9234;49.344;11.120;2023-06-10T12:42:58;32.00;59.90
18218;DHT22;9234;49.344;11.120;2023-06-10T12:45:28;32.00;58.20
18218;DHT22;9234;49.344;11.120;2023-06-10T12:48:08;31.70;57.10
18218;DHT22;9234;49.344;11.120;2023-06-10T12:50:40;31.40;57.80
18218;DHT22;9234;49.344;11.120;2023-06-10T12:53:11;31.00;57.60
18218;DHT22;9234;49.344;11.120;2023-06-10T12:55:39;30.50;58.60
18218;DHT22;9234;49.344;11.120;2023-06-10T12:58:08;30.20;59.00
18218;DHT22;9234;49.344;11.120;2023-06-10T13:00:36;30.00;60.70
18218;DHT22;9234;49.344;11.120;2023-06-10T13:03:07;29.70;61.90
18218;DHT22;9234;49.344;11.120;2023-06-10T13:05:36;29.80;62.10
18218;DHT22;9234;49.344;11.120;2023-06-10T13:08:07;30.00;60.90
18218;DHT22;9234;49.344;11.120;2023-06-10T13:10:37;30.10;60.00
18218;DHT22;9234;49.344;11.120;2023-06-10T13:13:06;29.90;60.00
18218;DHT22;9234;49.344;11.120;2023-06-10T13:15:37;29.70;60.30
18218;DHT22;9234;49.344;11.120;2023-06-10T13:18:10;29.40;61.50
18218;DHT22;9234;49.344;11.120;2023-06-10T13:20:40;29.20;61.90
18218;DHT22;9234;49.344;11.120;2023-06-10T13:23:08;29.00;62.60
18218;DHT22;9234;49.344;11.120;2023-06-10T13:25:36;28.90;63.00
18218;DHT22;9234;49.344;11.120;2023-06-10T13:28:05;28.80;63.00
18218;DHT22;9234;49.344;11.120;2023-06-10T13:30:33;28.60;63.30
18218;DHT22;9234;49.344;11.120;2023-06-10T13:33:01;28.50;66.00
18218;DHT22;9234;49.344;11.120;2023-06-10T13:35:30;28.80;66.20
18218;DHT22;9234;49.344;11.120;2023-06-10T13:37:59;29.70;67.00
18218;DHT22;9234;49.344;11.120;2023-06-10T13:40:28;30.60;64.90
18218;DHT22;9234;49.344;11.120;2023-06-10T13:42:56;31.30;62.30
18218;DHT22;9234;49.344;11.120;2023-06-10T13:45:26;31.70;59.10
18218;DHT22;9234;49.344;11.120;2023-06-10T13:47:54;31.60;57.90
18218;DHT22;9234;49.344;11.120;2023-06-10T13:50:23;31.40;59.50
18218;DHT22;9234;49.344;11.120;2023-06-10T13:52:51;31.10;59.40
18218;DHT22;9234;49.344;11.120;2023-06-10T13:55:30;30.80;59.80
18218;DHT22;9234;49.344;11.120;2023-06-10T13:57:59;30.50;59.70
18218;DHT22;9234;49.344;11.120;2023-06-10T14:00:28;30.30;60.30
18218;DHT22;9234;49.344;11.120;2023-06-10T14:02:56;30.20;60.00
18218;DHT22;9234;49.344;11.120;2023-06-10T14:05:25;30.00;60.90
18218;DHT22;9234;49.344;11.120;2023-06-10T14:07:56;29.90;61.60
18218;DHT22;9234;49.344;11.120;2023-06-10T14:10:28;29.90;62.40
18218;DHT22;9234;49.344;11.120;2023-06-10T14:12:57;30.00;62.80
18218;DHT22;9234;49.344;11.120;2023-06-10T14:15:25;30.10;62.50
18218;DHT22;9234;49.344;11.120;2023-06-10T14:17:53;30.50;63.00
18218;DHT22;9234;49.344;11.120;2023-06-10T14:20:22;31.00;61.00
18218;DHT22;9234;49.344;11.120;2023-06-10T14:22:52;31.20;60.70
18218;DHT22;9234;49.344;11.120;2023-06-10T14:25:20;31.20;60.20
18218;DHT22;9234;49.344;11.120;2023-06-10T14:27:50;31.10;60.30
18218;DHT22;9234;49.344;11.120;2023-06-10T14:30:19;31.00;60.00
18218;DHT22;9234;49.344;11.120;2023-06-10T14:32:47;30.80;59.50
18218;DHT22;9234;49.344;11.120;2023-06-10T14:35:16;30.50;59.70
18218;DHT22;9234;49.344;11.120;2023-06-10T14:37:45;30.30;60.40
18218;DHT22;9234;49.344;11.120;2023-06-10T14:40:13;30.10;61.50
18218;DHT22;9234;49.344;11.120;2023-06-10T14:42:41;29.90;62.40
18218;DHT22;9234;49.344;11.120;2023-06-10T14:45:11;29.60;62.90
18218;DHT22;9234;49.344;11.120;2023-06-10T14:47:39;29.30;62.40
18218;DHT22;9234;49.344;11.120;2023-06-10T14:50:09;28.90;63.00
18218;DHT22;9234;49.344;11.120;2023-06-10T14:52:37;28.70;64.30
18218;DHT22;9234;49.344;11.120;2023-06-10T14:55:06;28.30;64.90
18218;DHT22;9234;49.344;11.120;2023-06-10T14:57:36;28.20;66.10
18218;DHT22;9234;49.344;11.120;2023-06-10T15:00:05;28.00;67.30
18218;DHT22;9234;49.344;11.120;2023-06-10T15:02:36;28.30;70.20
18218;DHT22;9234;49.344;11.120;2023-06-10T15:05:06;29.10;71.80
18218;DHT22;9234;49.344;11.120;2023-06-10T15:07:35;30.20;68.50
18218;DHT22;9234;49.344;11.120;2023-06-10T15:10:05;31.20;65.60
18218;DHT22;9234;49.344;11.120;2023-06-10T15:12:34;32.20;62.80
18218;DHT22;9234;49.344;11.120;2023-06-10T15:15:03;33.00;59.70
18218;DHT22;9234;49.344;11.120;2023-06-10T15:17:32;33.80;59.50
18218;DHT22;9234;49.344;11.120;2023-06-10T15:20:03;34.60;57.10
18218;DHT22;9234;49.344;11.120;2023-06-10T15:22:32;35.30;55.50
18218;DHT22;9234;49.344;11.120;2023-06-10T15:25:02;35.80;54.20
18218;DHT22;9234;49.344;11.120;2023-06-10T15:27:51;35.80;50.00
18218;DHT22;9234;49.344;11.120;2023-06-10T15:30:19;35.50;51.30
18218;DHT22;9234;49.344;11.120;2023-06-10T15:32:48;35.00;50.90
18218;DHT22;9234;49.344;11.120;2023-06-10T15:35:17;34.80;50.80
18218;DHT22;9234;49.344;11.120;2023-06-10T15:37:46;34.70;50.10
18218;DHT22;9234;49.344;11.120;2023-06-10T15:40:14;35.00;50.60
18218;DHT22;9234;49.344;11.120;2023-06-10T15:42:42;35.50;50.00
18218;DHT22;9234;49.344;11.120;2023-06-10T15:45:11;35.80;50.50
18218;DHT22;9234;49.344;11.120;2023-06-10T15:47:40;36.10;49.40
18218;DHT22;9234;49.344;11.120;2023-06-10T15:50:10;36.00;49.10